createdAt,value
2022-08-26T00:01:44.264Z,2.30
2022-08-26T00:04:11.959Z,3.40
2022-08-26T00:06:42.634Z,2.65
2022-08-26T00:09:16.184Z,3.85
2022-08-26T00:11:45.910Z,3.55
2022-08-26T00:14:13.832Z,2.65
2022-08-26T00:16:47.507Z,2.88
2022-08-26T00:19:19.469Z,2.50
2022-08-26T00:21:49.830Z,2.83
2022-08-26T00:24:17.717Z,3.67
2022-08-26T00:26:44.218Z,3.10
2022-08-26T00:29:13.380Z,2.20
2022-08-26T00:31:42.626Z,2.17
2022-08-26T00:34:12.020Z,2.70
2022-08-26T00:36:39.778Z,2.75
2022-08-26T00:39:14.293Z,2.70
2022-08-26T00:41:41.637Z,2.90
2022-08-26T00:44:15.208Z,2.42
2022-08-26T00:46:48.596Z,3.50
2022-08-26T00:49:27.633Z,2.63
2022-08-26T00:51:57.444Z,2.58
2022-08-26T00:54:27.445Z,3.30
2022-08-26T00:57:16.524Z,2.58
2022-08-26T00:59:45.825Z,3.42
2022-08-26T01:02:20.050Z,3.10
2022-08-26T01:04:54.302Z,3.78
2022-08-26T01:07:24.698Z,4.05
2022-08-26T01:09:53.051Z,2.70
2022-08-26T01:12:22.004Z,3.08
2022-08-26T01:14:49.360Z,2.30
2022-08-26T01:17:15.859Z,3.10
2022-08-26T01:19:51.066Z,3.13
2022-08-26T01:22:50.564Z,3.75
2022-08-26T01:25:19.624Z,3.47
2022-08-26T01:27:46.535Z,2.33
2022-08-26T01:30:19.064Z,2.35
2022-08-26T01:32:48.370Z,2.75
2022-08-26T01:35:15.087Z,3.30
2022-08-26T01:37:41.622Z,3.28
2022-08-26T01:40:17.112Z,2.03
2022-08-26T01:42:44.362Z,2.70
2022-08-26T01:45:14.862Z,2.58
2022-08-26T01:47:42.036Z,2.97
2022-08-26T01:50:27.873Z,2.75
2022-08-26T01:52:58.287Z,2.78
2022-08-26T01:55:32.056Z,2.67
2022-08-26T01:58:05.546Z,3.33
2022-08-26T02:00:33.538Z,3.55
2022-08-26T02:03:18.252Z,3.50
2022-08-26T02:05:56.856Z,3.22
2022-08-26T02:08:33.158Z,2.35
2022-08-26T02:11:00.083Z,3.30
2022-08-26T02:13:30.122Z,3.97
2022-08-26T02:15:57.938Z,3.33
2022-08-26T02:18:27.347Z,2.92
2022-08-26T02:20:57.709Z,3.50
2022-08-26T02:23:24.602Z,3.28
2022-08-26T02:25:56.892Z,2.70
2022-08-26T02:28:27.826Z,2.60
2022-08-26T02:30:55.727Z,2.95
2022-08-26T02:33:22.313Z,2.60
2022-08-26T02:35:48.876Z,3.30
2022-08-26T02:38:15.343Z,3.55
2022-08-26T02:40:44.169Z,3.85
2022-08-26T02:43:12.529Z,3.13
2022-08-26T02:45:40.242Z,3.90
2022-08-26T02:48:17.108Z,3.78
2022-08-26T02:50:45.608Z,4.00
2022-08-26T02:53:12.881Z,4.40
2022-08-26T02:55:45.081Z,4.50
2022-08-26T02:58:15.901Z,4.93
2022-08-26T03:00:52.451Z,4.75
2022-08-26T03:03:19.703Z,4.78
2022-08-26T03:05:49.590Z,5.05
2022-08-26T03:08:16.400Z,4.25
2022-08-26T03:10:45.482Z,3.75
2022-08-26T03:13:12.157Z,4.45
2022-08-26T03:15:39.442Z,3.97
2022-08-26T03:18:08.209Z,4.28
2022-08-26T03:20:36.672Z,3.30
2022-08-26T03:23:04.424Z,4.30
2022-08-26T03:25:30.969Z,4.55
2022-08-26T03:27:57.452Z,2.72
2022-08-26T03:30:45.205Z,4.32
2022-08-26T03:33:15.732Z,4.03
2022-08-26T03:35:44.338Z,4.50
2022-08-26T03:38:11.369Z,4.00
2022-08-26T03:40:42.503Z,4.72
2022-08-26T03:43:16.325Z,4.72
2022-08-26T03:45:43.161Z,4.97
2022-08-26T03:48:12.776Z,3.17
2022-08-26T03:50:42.580Z,5.18
2022-08-26T03:53:13.112Z,4.60
2022-08-26T03:55:40.163Z,4.57
2022-08-26T03:58:08.819Z,3.67
2022-08-26T04:00:35.785Z,4.35
2022-08-26T04:03:02.843Z,3.05
2022-08-26T04:05:29.781Z,4.80
2022-08-26T04:07:56.350Z,4.50
2022-08-26T04:10:29.266Z,3.75
2022-08-26T04:12:58.930Z,2.80
2022-08-26T04:15:29.507Z,3.47
2022-08-26T04:17:57.573Z,2.80
2022-08-26T04:20:28.587Z,3.30
2022-08-26T04:22:55.113Z,4.15
2022-08-26T04:25:24.169Z,3.10
2022-08-26T04:27:52.847Z,4.15
2022-08-26T04:30:20.070Z,2.58
2022-08-26T04:32:48.746Z,4.53
2022-08-26T04:35:15.218Z,2.63
2022-08-26T04:37:44.084Z,4.65
2022-08-26T04:40:11.274Z,2.83
2022-08-26T04:42:37.821Z,4.15
2022-08-26T04:45:14.929Z,3.55
2022-08-26T04:47:44.017Z,4.38
2022-08-26T04:50:11.054Z,3.30
2022-08-26T04:52:37.636Z,2.83
2022-08-26T04:55:06.667Z,3.00
2022-08-26T04:57:40.659Z,2.58
2022-08-26T05:00:11.125Z,3.13
2022-08-26T05:02:37.625Z,3.15
2022-08-26T05:05:07.006Z,3.20
2022-08-26T05:07:36.770Z,2.55
2022-08-26T05:10:04.760Z,4.10
2022-08-26T05:15:05.367Z,3.10
2022-08-26T05:17:33.347Z,2.88
2022-08-26T05:20:00.555Z,3.92
2022-08-26T05:22:31.418Z,4.20
2022-08-26T05:24:59.757Z,4.60
2022-08-26T05:27:26.487Z,2.47
2022-08-26T05:29:57.221Z,3.83
2022-08-26T05:32:28.718Z,3.00
2022-08-26T05:34:57.041Z,3.22
2022-08-26T05:37:25.040Z,3.45
2022-08-26T05:39:51.585Z,3.38
2022-08-26T05:42:19.786Z,3.60
2022-08-26T05:44:53.804Z,3.65
2022-08-26T05:47:22.407Z,3.28
2022-08-26T05:49:54.028Z,2.90
2022-08-26T05:52:20.937Z,3.35
2022-08-26T05:54:54.252Z,3.03
2022-08-26T05:57:20.751Z,3.78
2022-08-26T05:59:49.833Z,4.28
2022-08-26T06:02:16.332Z,2.38
2022-08-26T06:04:45.604Z,3.50
2022-08-26T06:07:13.109Z,3.03
2022-08-26T06:09:41.539Z,3.17
2022-08-26T06:12:08.158Z,2.65
2022-08-26T06:14:36.049Z,3.78
2022-08-26T06:17:06.704Z,3.28
2022-08-26T06:19:36.223Z,3.95
2022-08-26T06:22:27.838Z,3.20
2022-08-26T06:25:19.924Z,2.90
2022-08-26T06:27:46.406Z,3.10
2022-08-26T06:30:14.505Z,4.00
2022-08-26T06:32:41.701Z,2.92
2022-08-26T06:35:11.964Z,3.58
2022-08-26T06:37:39.148Z,3.20
2022-08-26T06:40:06.309Z,3.58
2022-08-26T06:42:33.612Z,3.22
2022-08-26T06:45:01.287Z,2.50
2022-08-26T06:47:29.875Z,2.90
2022-08-26T06:49:57.678Z,2.63
2022-08-26T06:52:24.364Z,3.53
2022-08-26T06:54:53.385Z,3.33
2022-08-26T06:57:19.978Z,3.10
2022-08-26T06:59:51.267Z,2.50
2022-08-26T07:02:18.253Z,2.80
2022-08-26T07:04:57.410Z,3.30
2022-08-26T07:07:23.908Z,3.30
2022-08-26T07:09:52.422Z,2.95
2022-08-26T07:12:20.557Z,3.08
2022-08-26T07:14:49.553Z,3.05
2022-08-26T07:17:16.504Z,3.10
2022-08-26T07:19:45.188Z,3.35
2022-08-26T07:22:12.871Z,2.95
2022-08-26T07:24:42.832Z,3.22
2022-08-26T07:27:13.553Z,2.90
2022-08-26T07:29:43.442Z,2.60
2022-08-26T07:32:12.966Z,2.72
2022-08-26T07:34:40.118Z,3.13
2022-08-26T07:37:09.019Z,2.85
2022-08-26T07:39:40.311Z,3.13
2022-08-26T07:42:09.902Z,2.45
2022-08-26T07:44:37.503Z,3.10
2022-08-26T07:47:10.393Z,3.45
2022-08-26T07:49:52.807Z,4.15
2022-08-26T07:52:25.328Z,2.85
2022-08-26T07:54:53.046Z,2.53
2022-08-26T07:57:19.644Z,3.03
2022-08-26T07:59:47.517Z,3.33
2022-08-26T08:02:14.020Z,3.25
2022-08-26T08:04:40.580Z,3.30
2022-08-26T08:07:07.544Z,3.15
2022-08-26T08:09:40.777Z,3.22
2022-08-26T08:12:07.597Z,3.38
2022-08-26T08:14:36.481Z,3.67
2022-08-26T08:17:04.437Z,3.72
2022-08-26T08:19:37.021Z,3.00
2022-08-26T08:22:16.975Z,3.25
2022-08-26T08:24:44.366Z,3.38
2022-08-26T08:27:10.967Z,3.00
2022-08-26T08:29:38.577Z,3.30
2022-08-26T08:32:05.572Z,3.78
2022-08-26T08:37:11.880Z,2.90
2022-08-26T08:39:38.557Z,3.40
2022-08-26T08:42:24.842Z,3.00
2022-08-26T08:44:52.968Z,3.45
2022-08-26T08:47:31.913Z,3.40
2022-08-26T08:50:26.387Z,2.97
2022-08-26T08:53:09.011Z,3.65
2022-08-26T08:55:45.121Z,2.33
2022-08-26T08:58:38.842Z,3.22
2022-08-26T09:01:10.233Z,3.35
2022-08-26T09:03:50.487Z,2.70
2022-08-26T09:06:18.695Z,3.20
2022-08-26T09:08:50.112Z,3.38
2022-08-26T09:11:18.694Z,3.60
2022-08-26T09:13:50.036Z,2.85
2022-08-26T09:16:39.129Z,3.72
2022-08-26T09:19:14.603Z,2.70
2022-08-26T09:21:45.715Z,3.47
2022-08-26T09:24:13.991Z,3.50
2022-08-26T09:26:40.947Z,3.40
2022-08-26T09:32:14.284Z,3.83
2022-08-26T09:35:07.647Z,3.55
2022-08-26T09:40:34.952Z,3.50
2022-08-26T09:43:15.837Z,4.18
2022-08-26T09:45:50.266Z,3.60
2022-08-26T09:48:27.034Z,4.50
2022-08-26T09:50:59.671Z,3.60
2022-08-26T09:53:30.667Z,4.00
2022-08-26T09:56:24.025Z,3.53
2022-08-26T09:58:53.087Z,3.95
2022-08-26T10:01:30.704Z,3.13
2022-08-26T10:04:24.174Z,3.83
2022-08-26T10:06:58.170Z,3.78
2022-08-26T10:09:25.840Z,3.72
2022-08-26T10:11:58.789Z,3.67
2022-08-26T10:14:31.129Z,4.00
2022-08-26T10:17:36.378Z,4.03
2022-08-26T10:20:22.456Z,3.70
2022-08-26T10:23:02.377Z,4.60
2022-08-26T10:25:33.733Z,3.15
2022-08-26T10:28:06.580Z,3.78
2022-08-26T10:30:45.695Z,4.57
2022-08-26T10:33:15.393Z,3.78
2022-08-26T10:35:58.456Z,3.85
2022-08-26T10:38:39.024Z,3.80
2022-08-26T10:41:24.541Z,4.22
2022-08-26T10:43:55.312Z,3.30
2022-08-26T10:46:27.412Z,3.58
2022-08-26T10:49:01.620Z,3.83
2022-08-26T10:51:38.625Z,2.92
2022-08-26T10:54:13.461Z,3.38
2022-08-26T10:56:51.788Z,4.35
2022-08-26T10:59:50.850Z,4.10
2022-08-26T11:02:31.082Z,3.72
2022-08-26T11:05:00.904Z,3.50
2022-08-26T11:07:46.066Z,3.88
2022-08-26T11:10:55.577Z,3.30
2022-08-26T11:14:01.711Z,3.40
2022-08-26T11:16:43.230Z,3.30
2022-08-26T11:19:16.481Z,4.10
2022-08-26T11:22:10.009Z,3.88
2022-08-26T11:24:53.157Z,3.50
2022-08-26T11:27:28.701Z,3.60
2022-08-26T11:29:56.687Z,4.40
2022-08-26T11:32:33.872Z,3.60
2022-08-26T11:35:12.575Z,3.58
2022-08-26T11:37:47.918Z,4.18
2022-08-26T11:40:25.824Z,4.03
2022-08-26T11:45:43.885Z,4.28
2022-08-26T11:48:23.882Z,4.10
2022-08-26T11:50:54.311Z,3.67
2022-08-26T11:53:22.863Z,4.05
2022-08-26T11:55:50.704Z,4.13
2022-08-26T11:58:19.611Z,3.30
2022-08-26T12:03:50.767Z,4.30
2022-08-26T12:06:23.341Z,4.05
2022-08-26T12:08:50.207Z,3.75
2022-08-26T12:11:24.406Z,4.55
2022-08-26T12:13:58.856Z,3.97
2022-08-26T12:16:27.588Z,4.05
2022-08-26T12:18:55.267Z,4.13
2022-08-26T12:21:26.560Z,3.83
2022-08-26T12:23:55.215Z,4.22
2022-08-26T12:26:29.763Z,4.00
2022-08-26T12:29:00.752Z,3.47
2022-08-26T12:31:35.185Z,3.67
2022-08-26T12:34:04.665Z,3.90
2022-08-26T12:36:35.331Z,3.67
2022-08-26T12:39:10.977Z,3.83
2022-08-26T12:41:51.141Z,3.53
2022-08-26T12:44:42.509Z,3.15
2022-08-26T12:47:42.810Z,3.85
2022-08-26T12:50:12.069Z,3.20
2022-08-26T12:52:53.953Z,3.30
2022-08-26T12:55:32.524Z,3.75
2022-08-26T12:58:14.287Z,3.90
2022-08-26T13:00:42.500Z,3.92
2022-08-26T13:03:37.906Z,2.72
2022-08-26T13:06:22.914Z,3.15
2022-08-26T13:08:59.759Z,3.25
2022-08-26T13:11:29.649Z,3.25
2022-08-26T13:14:12.789Z,3.53
2022-08-26T13:16:50.824Z,3.83
2022-08-26T13:19:21.729Z,3.30
2022-08-26T13:21:49.156Z,3.63
2022-08-26T13:24:21.063Z,3.42
2022-08-26T13:26:50.358Z,3.35
2022-08-26T13:29:17.479Z,3.15
2022-08-26T13:31:44.924Z,2.97
2022-08-26T13:34:25.041Z,3.85
2022-08-26T13:36:54.054Z,3.28
2022-08-26T13:39:21.218Z,3.42
2022-08-26T13:41:52.612Z,4.35
2022-08-26T13:44:19.569Z,2.97
2022-08-26T13:46:46.302Z,4.20
2022-08-26T13:49:13.569Z,3.42
2022-08-26T13:51:40.669Z,3.30
2022-08-26T13:54:08.431Z,3.30
2022-08-26T13:56:35.502Z,3.20
2022-08-26T13:59:04.294Z,2.97
2022-08-26T14:01:31.662Z,3.75
2022-08-26T14:03:58.770Z,3.80
2022-08-26T14:06:26.939Z,3.50
2022-08-26T14:08:53.477Z,4.00
2022-08-26T14:11:20.055Z,3.03
2022-08-26T14:13:46.540Z,2.80
2022-08-26T14:16:23.321Z,3.85
2022-08-26T14:18:51.005Z,3.35
2022-08-26T14:21:17.687Z,4.05
2022-08-26T14:23:44.714Z,3.13
2022-08-26T14:26:28.413Z,3.70
2022-08-26T14:29:05.584Z,3.28
2022-08-26T14:31:33.013Z,3.35
2022-08-26T14:34:02.833Z,3.55
2022-08-26T14:36:31.238Z,3.53
2022-08-26T14:39:17.953Z,4.30
2022-08-26T14:41:54.374Z,3.00
2022-08-26T14:44:23.220Z,3.58
2022-08-26T14:47:06.874Z,3.25
2022-08-26T14:49:33.433Z,3.03
2022-08-26T14:51:59.955Z,3.60
2022-08-26T14:54:29.960Z,3.55
2022-08-26T14:57:05.576Z,3.90
2022-08-26T14:59:35.690Z,3.17
2022-08-26T15:02:02.592Z,3.35
2022-08-26T15:04:29.374Z,3.25
2022-08-26T15:06:57.465Z,3.90
2022-08-26T15:09:24.199Z,3.05
2022-08-26T15:11:51.408Z,2.88
2022-08-26T15:14:19.446Z,2.88
2022-08-26T15:16:48.450Z,3.63
2022-08-26T15:19:16.045Z,3.13
2022-08-26T15:21:43.399Z,3.30
2022-08-26T15:24:09.916Z,3.25
2022-08-26T15:26:39.070Z,4.00
2022-08-26T15:29:05.900Z,3.78
2022-08-26T15:31:33.359Z,3.50
2022-08-26T15:34:04.577Z,3.05
2022-08-26T15:36:34.484Z,3.22
2022-08-26T15:39:01.528Z,2.83
2022-08-26T15:41:28.971Z,3.58
2022-08-26T15:43:59.926Z,3.35
2022-08-26T15:46:28.830Z,3.38
2022-08-26T15:48:55.543Z,3.58
2022-08-26T15:51:45.887Z,3.58
2022-08-26T15:54:13.495Z,3.58
2022-08-26T15:56:43.552Z,3.25
2022-08-26T15:59:14.529Z,3.50
2022-08-26T16:01:44.668Z,3.80
2022-08-26T16:04:11.912Z,2.95
2022-08-26T16:06:44.232Z,3.72
2022-08-26T16:09:13.767Z,4.00
2022-08-26T16:11:40.313Z,3.47
2022-08-26T16:14:07.143Z,3.50
2022-08-26T16:16:33.948Z,4.13
2022-08-26T16:19:04.291Z,4.35
2022-08-26T16:21:33.639Z,4.50
2022-08-26T16:24:02.856Z,3.60
2022-08-26T16:26:32.837Z,3.97
2022-08-26T16:31:53.249Z,3.53
2022-08-26T16:34:22.407Z,3.30
2022-08-26T16:36:48.933Z,2.70
2022-08-26T16:39:17.750Z,2.60
2022-08-26T16:41:48.310Z,3.10
2022-08-26T16:44:14.829Z,4.00
2022-08-26T16:46:41.753Z,3.70
2022-08-26T16:49:08.348Z,3.65
2022-08-26T16:52:01.508Z,3.20
2022-08-26T16:54:27.991Z,4.10
2022-08-26T16:56:54.491Z,3.22
2022-08-26T16:59:23.329Z,2.83
2022-08-26T17:01:50.008Z,3.85
2022-08-26T17:04:23.377Z,2.55
2022-08-26T17:06:50.031Z,3.50
2022-08-26T17:09:16.696Z,3.25
2022-08-26T17:11:46.565Z,2.95
2022-08-26T17:14:13.318Z,3.10
2022-08-26T17:16:39.876Z,2.72
2022-08-26T17:19:06.757Z,2.83
2022-08-26T17:21:35.299Z,3.78
2022-08-26T17:24:03.080Z,3.90
2022-08-26T17:26:29.649Z,3.10
2022-08-26T17:28:56.555Z,3.30
2022-08-26T17:31:23.745Z,3.67
2022-08-26T17:33:53.512Z,3.00
2022-08-26T17:36:27.844Z,3.03
2022-08-26T17:38:55.774Z,3.15
2022-08-26T17:41:22.754Z,2.83
2022-08-26T17:43:51.712Z,3.65
2022-08-26T17:46:18.319Z,3.38
2022-08-26T17:48:48.469Z,2.70
2022-08-26T17:51:17.017Z,2.90
2022-08-26T17:53:43.656Z,3.25
2022-08-26T17:56:13.855Z,3.33
2022-08-26T17:58:50.932Z,3.75
2022-08-26T18:01:22.131Z,3.65
2022-08-26T18:03:49.205Z,3.78
2022-08-26T18:06:15.818Z,2.55
2022-08-26T18:08:42.505Z,3.25
2022-08-26T18:11:22.940Z,2.70
2022-08-26T18:13:55.924Z,2.20
2022-08-26T18:16:23.887Z,2.25
2022-08-26T18:18:53.433Z,2.83
2022-08-26T18:21:23.090Z,2.58
2022-08-26T18:23:50.416Z,2.65
2022-08-26T18:26:20.526Z,3.90
2022-08-26T18:28:48.469Z,4.00
2022-08-26T18:31:17.490Z,3.50
2022-08-26T18:33:44.427Z,2.88
2022-08-26T18:36:45.692Z,3.15
2022-08-26T18:39:15.787Z,3.53
2022-08-26T18:41:45.006Z,3.08
2022-08-26T18:44:15.263Z,3.90
2022-08-26T18:46:42.646Z,3.03
2022-08-26T18:49:10.875Z,3.72
2022-08-26T18:51:37.908Z,3.40
2022-08-26T18:54:08.531Z,3.03
2022-08-26T18:56:36.385Z,3.28
2022-08-26T18:59:03.806Z,3.13
2022-08-26T19:01:31.249Z,2.63
2022-08-26T19:03:59.423Z,3.50
2022-08-26T19:06:29.631Z,3.85
2022-08-26T19:08:57.992Z,3.30
2022-08-26T19:11:32.614Z,3.30
2022-08-26T19:14:09.046Z,3.45
2022-08-26T19:16:38.940Z,4.50
2022-08-26T19:19:06.178Z,3.70
2022-08-26T19:21:34.215Z,3.58
2022-08-26T19:24:03.362Z,3.85
2022-08-26T19:26:30.646Z,4.50
2022-08-26T19:29:07.074Z,4.22
2022-08-26T19:31:33.659Z,4.57
2022-08-26T19:34:00.367Z,4.43
2022-08-26T19:36:28.094Z,3.42
2022-08-26T19:38:56.471Z,3.38
2022-08-26T19:41:37.091Z,4.38
2022-08-26T19:44:38.964Z,4.30
2022-08-26T19:47:10.000Z,3.95
2022-08-26T19:49:37.216Z,4.65
2022-08-26T19:52:05.616Z,4.53
2022-08-26T19:54:32.340Z,4.95
2022-08-26T19:56:58.882Z,4.13
2022-08-26T19:59:25.403Z,4.13
2022-08-26T20:02:00.603Z,5.10
2022-08-26T20:04:28.378Z,4.55
2022-08-26T20:07:00.974Z,3.45
2022-08-26T20:09:32.628Z,4.05
2022-08-26T20:12:02.884Z,3.92
2022-08-26T20:14:29.946Z,4.65
2022-08-26T20:16:56.638Z,3.83
2022-08-26T20:19:43.574Z,5.35
2022-08-26T20:22:13.423Z,4.60
2022-08-26T20:24:42.941Z,4.25
2022-08-26T20:27:09.772Z,4.53
2022-08-26T20:29:40.038Z,3.97
2022-08-26T20:32:09.571Z,4.07
2022-08-26T20:34:36.556Z,4.57
2022-08-26T20:37:04.242Z,4.50
2022-08-26T20:39:30.841Z,3.70
2022-08-26T20:41:57.992Z,4.50
2022-08-26T20:44:25.113Z,4.28
2022-08-26T20:46:55.251Z,3.30
2022-08-26T20:49:21.801Z,3.28
2022-08-26T20:52:02.428Z,4.15
2022-08-26T20:54:29.510Z,4.72
2022-08-26T20:56:57.414Z,4.55
2022-08-26T20:59:26.396Z,3.72
2022-08-26T21:01:54.243Z,4.75
2022-08-26T21:04:23.079Z,4.28
2022-08-26T21:06:52.935Z,4.38
2022-08-26T21:09:21.961Z,3.50
2022-08-26T21:11:49.198Z,3.88
2022-08-26T21:14:17.116Z,3.45
2022-08-26T21:16:44.965Z,4.80
2022-08-26T21:19:13.770Z,4.47
2022-08-26T21:21:41.449Z,4.00
2022-08-26T21:24:08.326Z,3.80
2022-08-26T21:26:35.372Z,3.67
2022-08-26T21:29:02.493Z,4.32
2022-08-26T21:31:33.958Z,3.95
2022-08-26T21:34:00.559Z,3.38
2022-08-26T21:36:27.292Z,4.90
2022-08-26T21:38:57.892Z,2.80
2022-08-26T21:41:27.225Z,3.25
2022-08-26T21:43:58.860Z,4.53
2022-08-26T21:46:27.704Z,3.10
2022-08-26T21:48:55.758Z,4.75
2022-08-26T21:51:24.977Z,3.65
2022-08-26T21:53:52.918Z,3.42
2022-08-26T21:56:22.463Z,3.40
2022-08-26T21:58:49.356Z,3.65
2022-08-26T22:01:21.518Z,4.53
2022-08-26T22:03:49.111Z,4.43
2022-08-26T22:06:24.910Z,3.75
2022-08-26T22:08:52.071Z,5.30
2022-08-26T22:11:25.077Z,5.78
2022-08-26T22:13:58.055Z,3.90
2022-08-26T22:16:26.821Z,4.68
2022-08-26T22:18:56.367Z,3.67
2022-08-26T22:21:24.940Z,3.95
2022-08-26T22:23:58.103Z,3.60
2022-08-26T22:26:29.030Z,5.63
2022-08-26T22:28:58.753Z,4.18
2022-08-26T22:31:37.837Z,3.85
2022-08-26T22:34:19.359Z,4.45
2022-08-26T22:36:47.965Z,6.15
2022-08-26T22:39:16.601Z,6.40
2022-08-26T22:41:44.182Z,5.28
2022-08-26T22:44:11.836Z,6.80
2022-08-26T22:46:44.347Z,6.18
2022-08-26T22:49:16.369Z,7.13
2022-08-26T22:51:47.267Z,8.85
2022-08-26T22:54:14.254Z,9.35
2022-08-26T22:56:40.847Z,5.90
2022-08-26T22:59:11.711Z,5.05
2022-08-26T23:01:41.235Z,6.78
2022-08-26T23:04:14.067Z,7.55
2022-08-26T23:06:47.421Z,7.15
2022-08-26T23:09:17.964Z,6.68
2022-08-26T23:11:48.850Z,7.28
2022-08-26T23:14:19.340Z,3.75
2022-08-26T23:16:46.000Z,4.10
2022-08-26T23:19:13.327Z,5.03
2022-08-26T23:21:40.791Z,3.42
2022-08-26T23:24:11.083Z,4.00
2022-08-26T23:26:38.434Z,5.70
2022-08-26T23:29:09.283Z,5.43
2022-08-26T23:31:41.234Z,4.80
2022-08-26T23:36:53.911Z,4.20
2022-08-26T23:39:20.557Z,5.20
2022-08-26T23:41:47.077Z,5.57
2022-08-26T23:44:15.263Z,4.07
2022-08-26T23:46:43.960Z,4.10
2022-08-26T23:49:10.499Z,6.07
2022-08-26T23:52:04.503Z,6.07
2022-08-26T23:54:37.805Z,3.30
2022-08-26T23:57:05.565Z,5.00
2022-08-26T23:59:32.614Z,5.13
